createdAt,value
2023-05-15T00:00:09.368Z,71.90
2023-05-15T00:02:35.890Z,72.40
2023-05-15T00:05:02.408Z,71.70
2023-05-15T00:07:28.970Z,71.60
2023-05-15T00:09:55.442Z,71.50
2023-05-15T00:12:21.883Z,71.60
2023-05-15T00:14:48.276Z,71.90
2023-05-15T00:17:14.728Z,72.00
2023-05-15T00:19:41.144Z,72.10
2023-05-15T00:22:07.786Z,72.00
2023-05-15T00:24:34.199Z,72.90
2023-05-15T00:27:00.622Z,72.50
2023-05-15T00:29:27.067Z,72.80
2023-05-15T00:31:53.603Z,73.20
2023-05-15T00:34:20.106Z,73.40
2023-05-15T00:36:46.771Z,73.60
2023-05-15T00:39:13.224Z,73.60
2023-05-15T00:41:39.630Z,73.60
2023-05-15T00:44:06.019Z,73.90
2023-05-15T00:46:32.467Z,74.30
2023-05-15T00:48:58.940Z,74.70
2023-05-15T00:51:25.348Z,75.00
2023-05-15T00:53:51.797Z,75.20
2023-05-15T00:56:18.313Z,75.30
2023-05-15T00:58:44.772Z,75.20
2023-05-15T01:01:11.218Z,75.30
2023-05-15T01:03:37.904Z,75.60
2023-05-15T01:06:04.411Z,75.80
2023-05-15T01:08:30.834Z,75.90
2023-05-15T01:10:57.221Z,75.70
2023-05-15T01:13:23.683Z,75.30
2023-05-15T01:15:50.089Z,75.10
2023-05-15T01:18:16.861Z,75.00
2023-05-15T01:20:43.287Z,75.10
2023-05-15T01:23:09.773Z,75.10
2023-05-15T01:25:36.150Z,75.20
2023-05-15T01:28:02.635Z,75.40
2023-05-15T01:30:29.068Z,75.50
2023-05-15T01:32:55.596Z,75.70
2023-05-15T01:35:22.215Z,75.90
2023-05-15T01:37:48.682Z,76.00
2023-05-15T01:40:15.102Z,76.20
2023-05-15T01:42:41.562Z,76.40
2023-05-15T01:45:07.970Z,76.60
2023-05-15T01:47:34.527Z,77.10
2023-05-15T01:50:00.942Z,78.10
2023-05-15T01:52:27.314Z,78.80
2023-05-15T01:54:53.749Z,79.10
2023-05-15T01:57:20.219Z,79.20
2023-05-15T01:59:46.889Z,79.20
2023-05-15T02:02:13.333Z,79.00
2023-05-15T02:04:39.776Z,79.00
2023-05-15T02:07:06.245Z,78.90
2023-05-15T02:09:32.639Z,78.60
2023-05-15T02:11:59.092Z,78.40
2023-05-15T02:14:25.566Z,78.50
2023-05-15T02:16:52.042Z,78.20
2023-05-15T02:19:18.437Z,77.90
2023-05-15T02:21:44.893Z,77.60
2023-05-15T02:24:11.319Z,77.40
2023-05-15T02:26:37.838Z,77.30
2023-05-15T02:29:04.448Z,77.30
2023-05-15T02:31:31.002Z,77.10
2023-05-15T02:33:57.528Z,77.10
2023-05-15T02:36:23.908Z,77.10
2023-05-15T02:38:50.361Z,77.10
2023-05-15T02:41:16.898Z,76.90
2023-05-15T02:43:43.306Z,76.80
2023-05-15T02:46:09.719Z,76.60
2023-05-15T02:48:36.103Z,76.70
2023-05-15T02:51:02.559Z,76.60
2023-05-15T02:53:28.984Z,76.50
2023-05-15T02:55:55.367Z,76.50
2023-05-15T02:58:21.828Z,76.40
2023-05-15T03:00:48.247Z,76.30
2023-05-15T03:03:14.720Z,76.00
2023-05-15T03:05:41.153Z,76.00
2023-05-15T03:08:07.781Z,76.10
2023-05-15T03:10:34.195Z,76.10
2023-05-15T03:13:00.584Z,76.00
2023-05-15T03:15:27.223Z,76.10
2023-05-15T03:17:53.856Z,76.00
2023-05-15T03:20:20.258Z,75.90
2023-05-15T03:22:46.870Z,75.90
2023-05-15T03:25:13.294Z,75.90
2023-05-15T03:27:39.668Z,75.90
2023-05-15T03:30:06.044Z,76.00
2023-05-15T03:32:32.435Z,75.90
2023-05-15T03:34:58.864Z,75.90
2023-05-15T03:37:25.291Z,76.00
2023-05-15T03:39:51.699Z,76.00
2023-05-15T03:42:18.131Z,76.10
2023-05-15T03:44:44.583Z,76.10
2023-05-15T03:47:10.970Z,76.00
2023-05-15T03:49:37.563Z,76.00
2023-05-15T03:52:03.997Z,75.90
2023-05-15T03:54:30.458Z,75.60
2023-05-15T03:56:56.896Z,75.70
2023-05-15T03:59:23.303Z,76.00
2023-05-15T04:02:03.422Z,75.90
2023-05-15T04:04:31.043Z,76.30
2023-05-15T04:06:57.448Z,76.90
2023-05-15T04:09:23.858Z,77.80
2023-05-15T04:11:50.316Z,78.20
2023-05-15T04:14:16.938Z,78.90
2023-05-15T04:16:43.481Z,79.40
2023-05-15T04:19:10.068Z,79.60
2023-05-15T04:21:36.819Z,79.60
2023-05-15T04:24:03.471Z,80.00
2023-05-15T04:26:29.966Z,80.50
2023-05-15T04:29:04.146Z,80.70
2023-05-15T04:31:31.117Z,80.90
2023-05-15T04:33:57.606Z,81.10
2023-05-15T04:36:24.029Z,81.30
2023-05-15T04:38:50.523Z,81.50
2023-05-15T04:41:16.998Z,81.40
2023-05-15T04:43:43.487Z,81.20
2023-05-15T04:46:09.896Z,80.90
2023-05-15T04:48:36.366Z,80.50
2023-05-15T04:51:02.935Z,80.40
2023-05-15T04:53:29.367Z,80.60
2023-05-15T04:55:55.887Z,80.50
2023-05-15T04:58:22.390Z,80.20
2023-05-15T05:00:48.777Z,79.90
2023-05-15T05:03:15.368Z,79.70
2023-05-15T05:05:41.980Z,79.40
2023-05-15T05:08:08.386Z,79.10
2023-05-15T05:10:34.825Z,78.90
2023-05-15T05:13:01.212Z,78.50
2023-05-15T05:15:27.742Z,78.40
2023-05-15T05:17:54.422Z,78.40
2023-05-15T05:20:20.881Z,78.70
2023-05-15T05:22:47.285Z,78.80
2023-05-15T05:25:13.741Z,78.70
2023-05-15T05:27:40.188Z,78.40
2023-05-15T05:30:06.902Z,78.20
2023-05-15T05:32:33.358Z,78.00
2023-05-15T05:34:59.786Z,77.90
2023-05-15T05:37:26.258Z,78.30
2023-05-15T05:39:52.702Z,78.50
2023-05-15T05:42:19.112Z,78.60
2023-05-15T05:44:45.936Z,78.60
2023-05-15T05:47:12.461Z,78.80
2023-05-15T05:49:38.907Z,79.30
2023-05-15T05:52:05.295Z,79.70
2023-05-15T05:54:31.664Z,80.10
2023-05-15T05:56:58.058Z,80.40
2023-05-15T05:59:24.534Z,80.70
2023-05-15T06:01:51.046Z,81.30
2023-05-15T06:04:18.329Z,81.30
2023-05-15T06:06:44.878Z,81.50
2023-05-15T06:09:11.305Z,81.80
2023-05-15T06:11:37.877Z,81.90
2023-05-15T06:14:04.382Z,81.70
2023-05-15T06:16:30.916Z,81.50
2023-05-15T06:18:57.354Z,82.10
2023-05-15T06:21:23.848Z,81.60
2023-05-15T06:23:50.252Z,81.70
2023-05-15T06:26:16.724Z,81.50
2023-05-15T06:28:43.228Z,81.30
2023-05-15T06:31:09.669Z,81.60
2023-05-15T06:33:36.145Z,80.70
2023-05-15T06:36:02.598Z,80.50
2023-05-15T06:38:29.061Z,80.60
2023-05-15T06:40:55.493Z,80.90
2023-05-15T06:43:21.949Z,80.90
2023-05-15T06:45:48.376Z,80.60
2023-05-15T06:48:14.764Z,80.40
2023-05-15T06:50:41.261Z,80.40
2023-05-15T06:53:07.709Z,80.30
2023-05-15T06:55:34.171Z,79.90
2023-05-15T06:58:00.569Z,79.80
2023-05-15T07:00:26.972Z,79.80
2023-05-15T07:02:53.369Z,79.40
2023-05-15T07:05:19.763Z,79.40
2023-05-15T07:07:46.133Z,79.20
2023-05-15T07:10:12.569Z,79.00
2023-05-15T07:12:39.030Z,78.90
2023-05-15T07:15:05.548Z,78.60
2023-05-15T07:17:32.151Z,78.30
2023-05-15T07:19:58.699Z,78.00
2023-05-15T07:22:25.093Z,77.70
2023-05-15T07:24:51.504Z,77.40
2023-05-15T07:27:17.964Z,76.70
2023-05-15T07:29:44.412Z,76.40
2023-05-15T07:32:10.897Z,76.20
2023-05-15T07:34:37.303Z,75.80
2023-05-15T07:37:03.738Z,75.50
2023-05-15T07:39:30.194Z,75.10
2023-05-15T07:41:56.711Z,74.30
2023-05-15T07:44:23.167Z,73.90
2023-05-15T07:46:49.662Z,73.60
2023-05-15T07:49:16.127Z,73.50
2023-05-15T07:51:42.577Z,72.90
2023-05-15T07:54:08.969Z,73.00
2023-05-15T07:56:35.361Z,72.90
2023-05-15T07:59:01.922Z,72.50
2023-05-15T08:01:30.558Z,72.10
2023-05-15T08:03:57.826Z,71.60
2023-05-15T08:06:24.255Z,71.10
2023-05-15T08:08:50.682Z,70.70
2023-05-15T08:11:17.087Z,70.50
2023-05-15T08:13:43.568Z,70.00
2023-05-15T08:16:10.136Z,69.90
2023-05-15T08:18:36.998Z,69.10
2023-05-15T08:21:04.727Z,68.10
2023-05-15T08:23:31.258Z,67.80
2023-05-15T08:25:57.648Z,67.40
2023-05-15T08:28:24.095Z,67.20
2023-05-15T08:30:50.570Z,66.60
2023-05-15T08:33:17.132Z,66.50
2023-05-15T08:35:43.601Z,66.60
2023-05-15T08:38:10.058Z,65.80
2023-05-15T08:40:39.540Z,65.50
2023-05-15T08:43:06.965Z,65.60
2023-05-15T08:45:33.380Z,65.80
2023-05-15T08:47:59.943Z,65.80
2023-05-15T08:50:26.640Z,66.00
2023-05-15T08:52:53.139Z,65.70
2023-05-15T08:55:19.598Z,65.10
2023-05-15T08:57:46.167Z,65.10
2023-05-15T09:00:12.732Z,64.90
2023-05-15T09:02:39.243Z,64.80
2023-05-15T09:05:05.834Z,64.40
2023-05-15T09:07:32.273Z,64.80
2023-05-15T09:09:58.679Z,64.70
2023-05-15T09:12:25.078Z,64.30
2023-05-15T09:14:51.516Z,64.00
2023-05-15T09:17:17.920Z,63.10
2023-05-15T09:19:44.340Z,61.90
2023-05-15T09:22:10.821Z,62.00
2023-05-15T09:24:38.274Z,61.80
2023-05-15T09:27:04.741Z,61.20
2023-05-15T09:29:31.144Z,59.70
2023-05-15T09:31:57.595Z,58.50
2023-05-15T09:34:24.029Z,58.40
2023-05-15T09:36:50.457Z,58.10
2023-05-15T09:39:17.060Z,58.10
2023-05-15T09:41:43.584Z,58.20
2023-05-15T09:44:10.046Z,58.00
2023-05-15T09:46:36.617Z,57.90
2023-05-15T09:49:03.371Z,58.00
2023-05-15T09:51:29.787Z,57.30
2023-05-15T09:53:56.196Z,57.00
2023-05-15T09:56:22.718Z,56.80
2023-05-15T09:58:49.193Z,55.30
2023-05-15T10:01:15.594Z,56.00
2023-05-15T10:03:42.161Z,55.70
2023-05-15T10:06:08.619Z,56.10
2023-05-15T10:08:35.027Z,56.40
2023-05-15T10:11:01.489Z,56.70
2023-05-15T10:13:28.040Z,56.00
2023-05-15T10:15:54.485Z,55.70
2023-05-15T10:18:20.970Z,55.50
2023-05-15T10:20:47.359Z,55.10
2023-05-15T10:23:13.777Z,55.20
2023-05-15T10:25:40.232Z,56.00
2023-05-15T10:28:06.809Z,55.80
2023-05-15T10:30:33.429Z,55.20
2023-05-15T10:32:59.893Z,55.40
2023-05-15T10:35:26.374Z,55.30
2023-05-15T10:37:52.841Z,55.10
2023-05-15T10:40:19.245Z,55.60
2023-05-15T10:42:45.860Z,55.50
2023-05-15T10:45:12.469Z,54.60
2023-05-15T10:47:38.901Z,54.50
2023-05-15T10:50:05.419Z,54.20
2023-05-15T10:52:31.875Z,53.90
2023-05-15T10:54:58.288Z,53.50
2023-05-15T10:57:24.686Z,54.20
2023-05-15T10:59:51.137Z,54.30
2023-05-15T11:02:17.596Z,54.50
2023-05-15T11:04:44.097Z,53.80
2023-05-15T11:07:10.585Z,53.90
2023-05-15T11:09:37.107Z,53.10
2023-05-15T11:12:03.561Z,53.20
2023-05-15T11:14:29.949Z,53.40
2023-05-15T11:16:56.446Z,52.90
2023-05-15T11:19:22.904Z,53.20
2023-05-15T11:21:49.387Z,53.60
2023-05-15T11:24:16.105Z,53.60
2023-05-15T11:26:42.555Z,54.10
2023-05-15T11:29:09.034Z,54.70
2023-05-15T11:31:35.478Z,54.50
2023-05-15T11:34:02.048Z,54.40
2023-05-15T11:36:28.527Z,53.60
2023-05-15T11:38:54.940Z,53.20
2023-05-15T11:41:21.336Z,52.10
2023-05-15T11:43:47.778Z,51.90
2023-05-15T11:46:14.325Z,51.90
2023-05-15T11:48:40.834Z,51.90
2023-05-15T11:51:07.297Z,52.80
2023-05-15T11:53:33.789Z,52.60
2023-05-15T11:56:00.205Z,52.40
2023-05-15T11:58:26.643Z,52.20
2023-05-15T12:00:53.086Z,52.30
2023-05-15T12:03:19.552Z,52.30
2023-05-15T12:05:57.504Z,51.60
2023-05-15T12:08:25.264Z,49.80
2023-05-15T12:10:51.640Z,50.30
2023-05-15T12:13:18.033Z,50.30
2023-05-15T12:15:44.416Z,50.10
2023-05-15T12:18:10.858Z,50.40
2023-05-15T12:20:37.344Z,49.50
2023-05-15T12:23:03.832Z,48.10
2023-05-15T12:25:30.230Z,46.90
2023-05-15T12:27:56.779Z,46.00
2023-05-15T12:30:23.360Z,46.40
2023-05-15T12:32:49.974Z,46.00
2023-05-15T12:35:16.441Z,47.10
2023-05-15T12:37:42.835Z,46.40
2023-05-15T12:40:09.260Z,45.40
2023-05-15T12:42:35.692Z,45.70
2023-05-15T12:45:02.109Z,45.50
2023-05-15T12:47:28.541Z,46.30
2023-05-15T12:49:54.976Z,46.50
2023-05-15T12:52:21.407Z,46.50
2023-05-15T12:54:47.838Z,46.40
2023-05-15T12:57:14.238Z,46.40
2023-05-15T12:59:40.634Z,46.30
2023-05-15T13:02:07.567Z,47.00
2023-05-15T13:04:34.360Z,46.90
2023-05-15T13:07:00.762Z,47.50
2023-05-15T13:09:27.226Z,46.80
2023-05-15T13:11:53.681Z,46.00
2023-05-15T13:14:20.120Z,46.60
2023-05-15T13:16:46.677Z,45.80
2023-05-15T13:19:13.412Z,45.50
2023-05-15T13:21:39.851Z,45.70
2023-05-15T13:24:06.275Z,45.80
2023-05-15T13:26:32.764Z,46.80
2023-05-15T13:28:59.306Z,46.70
2023-05-15T13:31:25.759Z,46.80
2023-05-15T13:33:52.173Z,47.00
2023-05-15T13:36:18.586Z,47.40
2023-05-15T13:38:44.994Z,47.50
2023-05-15T13:41:11.379Z,46.60
2023-05-15T13:43:38.025Z,46.60
2023-05-15T13:46:04.451Z,45.30
2023-05-15T13:48:30.888Z,46.30
2023-05-15T13:50:57.343Z,48.20
2023-05-15T13:53:23.833Z,48.20
2023-05-15T13:55:50.316Z,48.20
2023-05-15T13:58:16.952Z,48.50
2023-05-15T14:00:43.481Z,49.30
2023-05-15T14:03:11.326Z,50.10
2023-05-15T14:05:39.795Z,51.70
2023-05-15T14:08:06.222Z,52.20
2023-05-15T14:10:32.675Z,51.10
2023-05-15T14:13:00.915Z,51.50
2023-05-15T14:15:27.565Z,52.40
2023-05-15T14:17:54.060Z,53.00
2023-05-15T14:20:20.568Z,53.20
2023-05-15T14:22:47.271Z,53.50
2023-05-15T14:25:13.749Z,54.10
2023-05-15T14:27:40.243Z,54.40
2023-05-15T14:30:06.840Z,55.30
2023-05-15T14:32:33.539Z,56.00
2023-05-15T14:35:00.192Z,57.10
2023-05-15T14:37:26.664Z,58.00
2023-05-15T14:39:53.099Z,58.80
2023-05-15T14:42:19.495Z,59.40
2023-05-15T14:44:46.273Z,59.70
2023-05-15T14:47:12.811Z,60.10
2023-05-15T14:49:39.333Z,60.20
2023-05-15T14:52:05.712Z,60.40
2023-05-15T14:54:32.155Z,60.90
2023-05-15T14:56:58.633Z,60.60
2023-05-15T14:59:25.073Z,60.60
2023-05-15T15:01:51.576Z,61.10
2023-05-15T15:04:18.244Z,61.40
2023-05-15T15:06:44.710Z,61.60
2023-05-15T15:09:11.158Z,62.10
2023-05-15T15:11:37.581Z,62.50
2023-05-15T15:14:03.982Z,62.60
2023-05-15T15:16:30.477Z,62.40
2023-05-15T15:18:57.050Z,62.80
2023-05-15T15:21:23.574Z,62.90
2023-05-15T15:23:50.029Z,63.60
2023-05-15T15:26:16.478Z,63.70
2023-05-15T15:28:42.966Z,63.30
2023-05-15T15:31:09.506Z,63.60
2023-05-15T15:33:35.958Z,64.00
2023-05-15T15:36:02.392Z,64.70
2023-05-15T15:38:28.857Z,65.00
2023-05-15T15:40:55.337Z,64.40
2023-05-15T15:43:21.785Z,64.30
2023-05-15T15:45:48.197Z,64.50
2023-05-15T15:48:14.687Z,64.50
2023-05-15T15:50:41.120Z,64.50
2023-05-15T15:53:07.546Z,65.10
2023-05-15T15:55:34.026Z,65.10
2023-05-15T15:58:00.463Z,65.00
2023-05-15T16:00:26.953Z,64.90
2023-05-15T16:02:53.629Z,64.90
2023-05-15T16:05:20.091Z,65.40
2023-05-15T16:07:46.522Z,65.80
2023-05-15T16:10:13.502Z,65.80
2023-05-15T16:12:40.069Z,66.40
2023-05-15T16:15:20.748Z,66.30
2023-05-15T16:17:48.615Z,66.00
2023-05-15T16:20:15.097Z,66.80
2023-05-15T16:22:41.763Z,66.10
2023-05-15T16:25:08.281Z,66.10
2023-05-15T16:27:34.731Z,66.20
2023-05-15T16:30:01.197Z,66.10
2023-05-15T16:32:27.643Z,65.80
2023-05-15T16:34:54.184Z,66.10
2023-05-15T16:37:20.583Z,66.10
2023-05-15T16:39:47.175Z,66.30
2023-05-15T16:42:13.580Z,66.70
2023-05-15T16:44:39.970Z,67.10
2023-05-15T16:47:06.583Z,67.50
2023-05-15T16:49:33.028Z,67.80
2023-05-15T16:51:59.479Z,68.20
2023-05-15T16:54:25.926Z,68.60
2023-05-15T16:56:52.309Z,68.90
2023-05-15T16:59:18.761Z,69.00
2023-05-15T17:01:45.180Z,69.10
2023-05-15T17:04:11.748Z,69.40
2023-05-15T17:06:38.276Z,69.30
2023-05-15T17:09:04.698Z,69.30
2023-05-15T17:11:31.147Z,69.10
2023-05-15T17:13:57.590Z,69.40
2023-05-15T17:16:24.024Z,70.30
2023-05-15T17:18:50.584Z,70.00
2023-05-15T17:21:17.319Z,70.30
2023-05-15T17:23:43.708Z,70.50
2023-05-15T17:26:10.100Z,70.60
2023-05-15T17:28:37.999Z,70.60
2023-05-15T17:31:05.471Z,70.70
2023-05-15T17:33:31.915Z,71.20
2023-05-15T17:35:58.388Z,71.30
2023-05-15T17:38:24.843Z,71.60
2023-05-15T17:40:51.273Z,72.10
2023-05-15T17:43:17.654Z,72.40
2023-05-15T17:45:44.102Z,72.50
2023-05-15T17:48:10.607Z,72.50
2023-05-15T17:50:37.785Z,72.60
2023-05-15T17:53:04.488Z,72.60
2023-05-15T17:55:30.906Z,72.80
2023-05-15T17:57:57.349Z,72.90
2023-05-15T18:00:23.809Z,73.00
2023-05-15T18:02:50.291Z,73.80
2023-05-15T18:05:16.732Z,73.20
2023-05-15T18:07:43.139Z,73.30
2023-05-15T18:10:09.610Z,73.30
2023-05-15T18:12:36.001Z,73.30
2023-05-15T18:15:02.368Z,73.10
2023-05-15T18:17:28.853Z,72.90
2023-05-15T18:19:55.371Z,73.00
2023-05-15T18:22:21.809Z,73.10
2023-05-15T18:24:48.371Z,73.00
2023-05-15T18:27:14.787Z,72.80
2023-05-15T18:29:41.501Z,72.90
2023-05-15T18:32:08.555Z,72.80
2023-05-15T18:34:34.978Z,72.40
2023-05-15T18:37:01.395Z,72.50
2023-05-15T18:39:27.846Z,72.70
2023-05-15T18:41:54.252Z,73.00
2023-05-15T18:44:20.706Z,73.30
2023-05-15T18:46:47.133Z,73.30
2023-05-15T18:49:13.573Z,73.20
2023-05-15T18:51:39.963Z,73.30
2023-05-15T18:54:06.702Z,73.40
2023-05-15T18:56:33.114Z,73.70
2023-05-15T18:58:59.578Z,73.70
2023-05-15T19:01:26.080Z,73.60
2023-05-15T19:03:52.506Z,73.40
2023-05-15T19:06:18.907Z,73.40
2023-05-15T19:08:45.609Z,73.50
2023-05-15T19:11:12.062Z,73.60
2023-05-15T19:13:38.434Z,73.70
2023-05-15T19:16:04.921Z,73.90
2023-05-15T19:18:31.387Z,74.00
2023-05-15T19:20:59.868Z,74.10
2023-05-15T19:23:26.267Z,73.80
2023-05-15T19:25:52.703Z,73.50
2023-05-15T19:28:19.116Z,73.40
2023-05-15T19:30:45.782Z,73.50
2023-05-15T19:33:12.222Z,73.70
2023-05-15T19:35:38.614Z,73.90
2023-05-15T19:38:04.985Z,74.20
2023-05-15T19:40:31.395Z,74.60
2023-05-15T19:42:57.813Z,74.60
2023-05-15T19:45:24.269Z,75.20
2023-05-15T19:47:50.689Z,74.60
2023-05-15T19:50:17.111Z,74.70
2023-05-15T19:52:45.303Z,74.80
2023-05-15T19:55:11.918Z,74.70
2023-05-15T19:57:38.325Z,74.60
2023-05-15T20:00:04.736Z,74.40
2023-05-15T20:02:31.247Z,74.20
2023-05-15T20:04:57.748Z,74.00
2023-05-15T20:07:24.144Z,74.00
2023-05-15T20:09:50.567Z,73.80
2023-05-15T20:12:16.955Z,74.10
2023-05-15T20:14:43.323Z,74.60
2023-05-15T20:17:09.777Z,74.80
2023-05-15T20:19:36.403Z,75.20
2023-05-15T20:22:02.814Z,75.50
2023-05-15T20:24:29.259Z,76.00
2023-05-15T20:26:55.644Z,75.90
2023-05-15T20:29:22.116Z,76.00
2023-05-15T20:31:48.692Z,76.00
2023-05-15T20:34:15.556Z,76.00
2023-05-15T20:36:41.948Z,76.00
2023-05-15T20:39:08.403Z,76.10
2023-05-15T20:41:34.828Z,76.00
2023-05-15T20:44:01.251Z,75.90
2023-05-15T20:46:29.619Z,75.90
2023-05-15T20:48:56.470Z,76.00
2023-05-15T20:51:22.977Z,76.00
2023-05-15T20:53:49.355Z,75.90
2023-05-15T20:56:15.797Z,75.80
2023-05-15T20:58:42.201Z,75.80
2023-05-15T21:01:08.654Z,75.70
2023-05-15T21:03:35.159Z,75.70
2023-05-15T21:06:01.681Z,75.60
2023-05-15T21:08:28.100Z,75.50
2023-05-15T21:10:54.488Z,75.50
2023-05-15T21:13:20.924Z,75.60
2023-05-15T21:15:47.301Z,75.90
2023-05-15T21:18:13.756Z,75.90
2023-05-15T21:20:40.152Z,76.00
2023-05-15T21:23:06.574Z,76.20
2023-05-15T21:25:33.026Z,76.70
2023-05-15T21:27:59.467Z,77.20
2023-05-15T21:30:26.019Z,77.70
2023-05-15T21:32:52.555Z,77.80
2023-05-15T21:35:19.030Z,77.50
2023-05-15T21:37:45.545Z,77.10
2023-05-15T21:40:12.029Z,76.90
2023-05-15T21:42:38.506Z,76.70
2023-05-15T21:45:06.604Z,76.80
2023-05-15T21:47:33.303Z,76.80
2023-05-15T21:49:59.688Z,76.60
2023-05-15T21:52:26.157Z,76.50
2023-05-15T21:54:52.651Z,76.50
2023-05-15T21:57:19.136Z,76.40
2023-05-15T21:59:45.666Z,76.10
2023-05-15T22:02:12.237Z,76.00
2023-05-15T22:04:38.710Z,76.00
2023-05-15T22:07:05.131Z,75.90
2023-05-15T22:09:31.525Z,75.90
2023-05-15T22:11:57.986Z,76.10
2023-05-15T22:14:24.448Z,76.10
2023-05-15T22:16:51.045Z,76.50
2023-05-15T22:19:31.612Z,76.50
2023-05-15T22:21:59.301Z,76.40
2023-05-15T22:24:25.930Z,76.40
2023-05-15T22:26:52.421Z,76.40
2023-05-15T22:29:18.883Z,76.60
2023-05-15T22:31:45.328Z,76.70
2023-05-15T22:34:11.738Z,76.80
2023-05-15T22:36:38.180Z,76.90
2023-05-15T22:39:04.749Z,77.00
2023-05-15T22:41:31.148Z,77.00
2023-05-15T22:43:57.580Z,77.00
2023-05-15T22:46:24.046Z,76.70
2023-05-15T22:48:50.504Z,76.70
2023-05-15T22:51:16.912Z,76.70
2023-05-15T22:53:43.280Z,76.50
2023-05-15T22:56:09.745Z,76.20
2023-05-15T22:58:36.227Z,76.10
2023-05-15T23:01:02.688Z,75.60
2023-05-15T23:03:29.192Z,75.20
2023-05-15T23:05:55.618Z,75.00
2023-05-15T23:08:22.116Z,75.00
2023-05-15T23:10:48.508Z,74.70
2023-05-15T23:13:14.930Z,74.70
2023-05-15T23:15:41.370Z,74.30
2023-05-15T23:18:07.844Z,74.20
2023-05-15T23:20:34.299Z,74.30
2023-05-15T23:23:00.685Z,74.30
2023-05-15T23:25:27.132Z,74.10
2023-05-15T23:27:53.570Z,74.20
2023-05-15T23:30:20.006Z,74.40
2023-05-15T23:32:46.517Z,74.40
2023-05-15T23:35:12.964Z,74.40
2023-05-15T23:37:39.333Z,74.30
2023-05-15T23:40:05.724Z,74.30
2023-05-15T23:42:32.119Z,74.40
2023-05-15T23:44:58.507Z,74.50
2023-05-15T23:47:24.902Z,74.60
2023-05-15T23:49:51.376Z,74.90
2023-05-15T23:52:17.788Z,74.90
2023-05-15T23:54:44.174Z,75.00
2023-05-15T23:57:10.602Z,75.00
2023-05-15T23:59:36.972Z,75.00
